ANA854 RCSS-RJTT
Flight info
| Callsign | ANA854 |
|---|---|
| Flight time | 3h 14m |
| Altitude | 33000 |
| Route | MOLKA1G MOLKA M750 MELEN/N0460F350 M750 BILLY Y21 AKSEL |
| Aircraft | B738/M-SDGIJ1LRWY/SB1 |
Departure
| Time | 2026-04-16 09:14 |
|---|---|
| Airport | Taipei Songshan International Airport (RCSS) |
Arrival
| Time | 2026-04-16 12:28 |
|---|---|
| Airport | Tokyo Haneda International Airport (RJTT) |
| Time | Latitude | Longitude | Altitude | Speed | Heading |
|---|---|---|---|---|---|
| 2026-04-16 08:25 | 25.06474 | 121.55212 | 74 ft | 0 kts | 177° |
| 2026-04-16 09:04 | 25.06481 | 121.55212 | 74 ft | 2 kts | 177° |
| 2026-04-16 09:04 | 25.06496 | 121.55211 | 74 ft | 2 kts | 177° |
| 2026-04-16 09:04 | 25.06510 | 121.55210 | 74 ft | 2 kts | 177° |
| 2026-04-16 09:05 | 25.06525 | 121.55209 | 74 ft | 2 kts | 177° |
| 2026-04-16 09:05 | 25.06541 | 121.55209 | 74 ft | 2 kts | 177° |
| 2026-04-16 09:05 | 25.06556 | 121.55208 | 74 ft | 2 kts | 189° |
| 2026-04-16 09:05 | 25.06569 | 121.55215 | 74 ft | 2 kts | 227° |
| 2026-04-16 09:06 | 25.06576 | 121.55230 | 74 ft | 2 kts | 261° |
| 2026-04-16 09:06 | 25.06576 | 121.55247 | 74 ft | 2 kts | 270° |
| 2026-04-16 09:06 | 25.06576 | 121.55254 | 74 ft | 0 kts | 265° |
| 2026-04-16 09:08 | 25.06576 | 121.55240 | 74 ft | 5 kts | 267° |
| 2026-04-16 09:09 | 25.06574 | 121.55162 | 74 ft | 14 kts | 268° |
| 2026-04-16 09:09 | 25.06571 | 121.55046 | 73 ft | 14 kts | 268° |
| 2026-04-16 09:09 | 25.06568 | 121.54940 | 73 ft | 13 kts | 268° |
| 2026-04-16 09:09 | 25.06565 | 121.54828 | 73 ft | 14 kts | 269° |
| 2026-04-16 09:10 | 25.06576 | 121.54723 | 73 ft | 13 kts | 297° |
| 2026-04-16 09:10 | 25.06622 | 121.54639 | 73 ft | 12 kts | 301° |
| 2026-04-16 09:10 | 25.06667 | 121.54562 | 73 ft | 13 kts | 310° |
| 2026-04-16 09:10 | 25.06736 | 121.54469 | 73 ft | 16 kts | 301° |
| 2026-04-16 09:11 | 25.06792 | 121.54368 | 73 ft | 14 kts | 301° |
| 2026-04-16 09:11 | 25.06844 | 121.54275 | 73 ft | 13 kts | 301° |
| 2026-04-16 09:11 | 25.06890 | 121.54183 | 73 ft | 14 kts | 295° |
| 2026-04-16 09:11 | 25.06912 | 121.54066 | 72 ft | 15 kts | 273° |
| 2026-04-16 09:12 | 25.06923 | 121.53987 | 72 ft | 7 kts | 314° |
| 2026-04-16 09:12 | 25.06977 | 121.53973 | 72 ft | 5 kts | 2° |
| 2026-04-16 09:12 | 25.07003 | 121.53996 | 72 ft | 4 kts | 78° |
| 2026-04-16 09:12 | 25.07003 | 121.54007 | 72 ft | 0 kts | 92° |
| 2026-04-16 09:13 | 25.07003 | 121.54010 | 72 ft | 6 kts | 92° |
| 2026-04-16 09:13 | 25.06990 | 121.54377 | 73 ft | 86 kts | 92° |
| 2026-04-16 09:13 | 25.06957 | 121.55306 | 74 ft | 154 kts | 92° |
| 2026-04-16 09:13 | 25.06907 | 121.56626 | 513 ft | 178 kts | 91° |
| 2026-04-16 09:14 | 25.06856 | 121.57958 | 1405 ft | 178 kts | 92° |
| 2026-04-16 09:14 | 25.06782 | 121.59336 | 2083 ft | 185 kts | 94° |
| 2026-04-16 09:14 | 25.06644 | 121.60780 | 2598 ft | 197 kts | 96° |
| 2026-04-16 09:14 | 25.06512 | 121.62344 | 3035 ft | 215 kts | 95° |
| 2026-04-16 09:15 | 25.06412 | 121.64052 | 3502 ft | 234 kts | 94° |
| 2026-04-16 09:15 | 25.06324 | 121.65891 | 4042 ft | 249 kts | 94° |
| 2026-04-16 09:15 | 25.06328 | 121.67639 | 4555 ft | 262 kts | 81° |
| 2026-04-16 09:15 | 25.07030 | 121.69530 | 5087 ft | 277 kts | 55° |
| 2026-04-16 09:16 | 25.08219 | 121.71248 | 5750 ft | 287 kts | 50° |
| 2026-04-16 09:16 | 25.09478 | 121.72986 | 6487 ft | 293 kts | 50° |
| 2026-04-16 09:16 | 25.10706 | 121.74796 | 7307 ft | 296 kts | 52° |
| 2026-04-16 09:16 | 25.11885 | 121.76638 | 8065 ft | 300 kts | 53° |
| 2026-04-16 09:17 | 25.13067 | 121.78539 | 8826 ft | 303 kts | 53° |
| 2026-04-16 09:17 | 25.14253 | 121.80478 | 9566 ft | 307 kts | 52° |
| 2026-04-16 09:17 | 25.15644 | 121.82241 | 10303 ft | 305 kts | 38° |
| 2026-04-16 09:17 | 25.17360 | 121.83701 | 10767 ft | 316 kts | 31° |
| 2026-04-16 09:18 | 25.19214 | 121.85085 | 11153 ft | 331 kts | 31° |
| 2026-04-16 09:18 | 25.21166 | 121.86565 | 11550 ft | 345 kts | 32° |
| 2026-04-16 09:18 | 25.23131 | 121.88118 | 12170 ft | 351 kts | 33° |
| 2026-04-16 09:18 | 25.25094 | 121.89714 | 12817 ft | 355 kts | 34° |
| 2026-04-16 09:19 | 25.27075 | 121.91351 | 13470 ft | 359 kts | 34° |
| 2026-04-16 09:19 | 25.29103 | 121.93037 | 14084 ft | 364 kts | 34° |
| 2026-04-16 09:19 | 25.31101 | 121.94743 | 14647 ft | 370 kts | 37° |
| 2026-04-16 09:19 | 25.32954 | 121.96785 | 15205 ft | 378 kts | 49° |
| 2026-04-16 09:20 | 25.34391 | 121.99248 | 15763 ft | 386 kts | 62° |
| 2026-04-16 09:20 | 25.35489 | 122.01939 | 16323 ft | 390 kts | 66° |
| 2026-04-16 09:20 | 25.36495 | 122.04739 | 16838 ft | 395 kts | 68° |
| 2026-04-16 09:20 | 25.37466 | 122.07588 | 17371 ft | 399 kts | 68° |
| 2026-04-16 09:21 | 25.38428 | 122.10452 | 17864 ft | 404 kts | 68° |
| 2026-04-16 09:21 | 25.39414 | 122.13375 | 18373 ft | 408 kts | 68° |
| 2026-04-16 09:21 | 25.40425 | 122.16346 | 18842 ft | 413 kts | 68° |
| 2026-04-16 09:21 | 25.41442 | 122.19312 | 19325 ft | 416 kts | 68° |
| 2026-04-16 09:22 | 25.42472 | 122.22301 | 19784 ft | 421 kts | 68° |
| 2026-04-16 09:22 | 25.43516 | 122.25370 | 20261 ft | 425 kts | 68° |
| 2026-04-16 09:22 | 25.44536 | 122.28404 | 20707 ft | 428 kts | 68° |
| 2026-04-16 09:22 | 25.45581 | 122.31527 | 21146 ft | 432 kts | 68° |
| 2026-04-16 09:23 | 25.46626 | 122.34656 | 21587 ft | 436 kts | 68° |
| 2026-04-16 09:23 | 25.47679 | 122.37808 | 22008 ft | 439 kts | 68° |
| 2026-04-16 09:23 | 25.48726 | 122.40941 | 22412 ft | 443 kts | 68° |
| 2026-04-16 09:23 | 25.49806 | 122.44173 | 22809 ft | 447 kts | 68° |
| 2026-04-16 09:24 | 25.50894 | 122.47423 | 23183 ft | 451 kts | 68° |
| 2026-04-16 09:24 | 25.51967 | 122.50633 | 23614 ft | 453 kts | 68° |
| 2026-04-16 09:24 | 25.53067 | 122.53921 | 24003 ft | 457 kts | 68° |
| 2026-04-16 09:24 | 25.54173 | 122.57233 | 24384 ft | 460 kts | 68° |
| 2026-04-16 09:25 | 25.55292 | 122.60586 | 24801 ft | 463 kts | 68° |
| 2026-04-16 09:25 | 25.56398 | 122.63899 | 25176 ft | 466 kts | 68° |
| 2026-04-16 09:25 | 25.57533 | 122.67307 | 25533 ft | 469 kts | 69° |
| 2026-04-16 09:25 | 25.58652 | 122.70667 | 25902 ft | 472 kts | 69° |
| 2026-04-16 09:26 | 25.59783 | 122.74068 | 26244 ft | 475 kts | 68° |
| 2026-04-16 09:26 | 25.60933 | 122.77530 | 26565 ft | 478 kts | 69° |
| 2026-04-16 09:26 | 25.62079 | 122.80983 | 26924 ft | 480 kts | 68° |
| 2026-04-16 09:26 | 25.63236 | 122.84473 | 27265 ft | 483 kts | 68° |
| 2026-04-16 09:27 | 25.64391 | 122.87957 | 27582 ft | 486 kts | 68° |
| 2026-04-16 09:27 | 25.65566 | 122.91473 | 27911 ft | 488 kts | 68° |
| 2026-04-16 09:27 | 25.66750 | 122.94988 | 28238 ft | 490 kts | 68° |
| 2026-04-16 09:27 | 25.67943 | 122.98519 | 28543 ft | 493 kts | 68° |
| 2026-04-16 09:28 | 25.69136 | 123.02051 | 28833 ft | 495 kts | 68° |
| 2026-04-16 09:28 | 25.70354 | 123.05659 | 29116 ft | 498 kts | 68° |
| 2026-04-16 09:28 | 25.71558 | 123.09228 | 29418 ft | 500 kts | 68° |
| 2026-04-16 09:28 | 25.72783 | 123.12869 | 29694 ft | 503 kts | 68° |
| 2026-04-16 09:29 | 25.73995 | 123.16476 | 30009 ft | 505 kts | 68° |
| 2026-04-16 09:29 | 25.75226 | 123.20144 | 30273 ft | 507 kts | 68° |
| 2026-04-16 09:29 | 25.76448 | 123.23790 | 30541 ft | 510 kts | 68° |
| 2026-04-16 09:29 | 25.77688 | 123.27495 | 30819 ft | 512 kts | 68° |
| 2026-04-16 09:30 | 25.78918 | 123.31175 | 31272 ft | 509 kts | 68° |
| 2026-04-16 09:30 | 25.80136 | 123.34829 | 31672 ft | 508 kts | 68° |
| 2026-04-16 09:30 | 25.81357 | 123.38493 | 32041 ft | 507 kts | 68° |
| 2026-04-16 09:30 | 25.82582 | 123.42172 | 32387 ft | 506 kts | 68° |
| 2026-04-16 09:31 | 25.83789 | 123.45798 | 32708 ft | 506 kts | 68° |
| 2026-04-16 09:31 | 25.85015 | 123.49481 | 32958 ft | 508 kts | 68° |
| 2026-04-16 09:31 | 25.86236 | 123.53155 | 32962 ft | 509 kts | 68° |
| 2026-04-16 09:32 | 25.88677 | 123.60502 | 32963 ft | 505 kts | 67° |
| 2026-04-16 09:32 | 25.90207 | 123.63956 | 32962 ft | 501 kts | 53° |
| 2026-04-16 09:32 | 25.92433 | 123.66869 | 32963 ft | 493 kts | 38° |
| 2026-04-16 09:32 | 25.95175 | 123.69102 | 32965 ft | 485 kts | 25° |
| 2026-04-16 09:33 | 25.98171 | 123.70760 | 32964 ft | 480 kts | 18° |
| 2026-04-16 09:33 | 26.04327 | 123.73573 | 32967 ft | 477 kts | 15° |
| 2026-04-16 09:34 | 26.10548 | 123.76209 | 32966 ft | 476 kts | 14° |
| 2026-04-16 09:34 | 26.16739 | 123.78815 | 32967 ft | 477 kts | 14° |
| 2026-04-16 09:35 | 26.22921 | 123.81438 | 32971 ft | 477 kts | 14° |
| 2026-04-16 09:35 | 26.29113 | 123.84086 | 32968 ft | 477 kts | 14° |
| 2026-04-16 09:36 | 26.35307 | 123.86748 | 32967 ft | 477 kts | 15° |
| 2026-04-16 09:36 | 26.41497 | 123.89414 | 32969 ft | 477 kts | 15° |
| 2026-04-16 09:37 | 26.47704 | 123.92091 | 32969 ft | 477 kts | 14° |
| 2026-04-16 09:37 | 26.53906 | 123.94769 | 32968 ft | 477 kts | 15° |
| 2026-04-16 09:38 | 26.60069 | 123.97434 | 32964 ft | 478 kts | 14° |
| 2026-04-16 09:38 | 26.66030 | 124.00940 | 32966 ft | 491 kts | 32° |
| 2026-04-16 09:39 | 26.70914 | 124.06324 | 32970 ft | 500 kts | 44° |
| 2026-04-16 09:39 | 26.75401 | 124.12305 | 32968 ft | 501 kts | 47° |
| 2026-04-16 09:40 | 26.79781 | 124.18352 | 32968 ft | 501 kts | 47° |
| 2026-04-16 09:40 | 26.84187 | 124.24402 | 32970 ft | 501 kts | 46° |
| 2026-04-16 09:41 | 26.88607 | 124.30411 | 32968 ft | 502 kts | 46° |
| 2026-04-16 09:41 | 26.93070 | 124.36441 | 32966 ft | 502 kts | 46° |
| 2026-04-16 09:42 | 26.97517 | 124.42442 | 32969 ft | 502 kts | 46° |
| 2026-04-16 09:42 | 27.01955 | 124.48425 | 32967 ft | 502 kts | 46° |
| 2026-04-16 09:43 | 27.06416 | 124.54447 | 32966 ft | 502 kts | 46° |
| 2026-04-16 09:43 | 27.10877 | 124.60477 | 32967 ft | 503 kts | 46° |
| 2026-04-16 09:44 | 27.15323 | 124.66497 | 32967 ft | 503 kts | 46° |
| 2026-04-16 09:44 | 27.19772 | 124.72530 | 32969 ft | 504 kts | 46° |
| 2026-04-16 09:45 | 27.24233 | 124.78589 | 32971 ft | 503 kts | 46° |
| 2026-04-16 09:45 | 27.28686 | 124.84647 | 32972 ft | 504 kts | 46° |
| 2026-04-16 09:46 | 27.33159 | 124.90739 | 32973 ft | 505 kts | 46° |
| 2026-04-16 09:46 | 27.37593 | 124.96787 | 32973 ft | 504 kts | 46° |
| 2026-04-16 09:47 | 27.42079 | 125.02904 | 32974 ft | 505 kts | 46° |
| 2026-04-16 09:47 | 27.46550 | 125.08944 | 32975 ft | 504 kts | 45° |
| 2026-04-16 09:48 | 27.51022 | 125.14967 | 32977 ft | 504 kts | 45° |
| 2026-04-16 09:48 | 27.55514 | 125.21027 | 32979 ft | 504 kts | 45° |
| 2026-04-16 09:49 | 27.60017 | 125.27116 | 32979 ft | 505 kts | 45° |
| 2026-04-16 09:49 | 27.64475 | 125.33160 | 32979 ft | 503 kts | 45° |
| 2026-04-16 09:50 | 27.68973 | 125.39269 | 32983 ft | 505 kts | 45° |
| 2026-04-16 09:50 | 27.73428 | 125.45330 | 32982 ft | 504 kts | 45° |
| 2026-04-16 09:51 | 27.77912 | 125.51437 | 32980 ft | 505 kts | 45° |
| 2026-04-16 09:51 | 27.82390 | 125.57543 | 32983 ft | 505 kts | 45° |
| 2026-04-16 09:52 | 27.86832 | 125.63613 | 32985 ft | 504 kts | 45° |
| 2026-04-16 09:52 | 27.91300 | 125.69729 | 32986 ft | 505 kts | 46° |
| 2026-04-16 09:53 | 27.95752 | 125.75828 | 32987 ft | 505 kts | 46° |
| 2026-04-16 09:53 | 28.00235 | 125.81976 | 32988 ft | 504 kts | 46° |
| 2026-04-16 09:54 | 28.04670 | 125.88068 | 32987 ft | 504 kts | 46° |
| 2026-04-16 09:54 | 28.09131 | 125.94206 | 32988 ft | 504 kts | 45° |
| 2026-04-16 09:55 | 28.13586 | 126.00342 | 32990 ft | 504 kts | 45° |
| 2026-04-16 09:55 | 28.17999 | 126.06428 | 32989 ft | 505 kts | 45° |
| 2026-04-16 09:56 | 28.22472 | 126.12607 | 32990 ft | 506 kts | 45° |
| 2026-04-16 09:56 | 28.26907 | 126.18743 | 32990 ft | 505 kts | 45° |
| 2026-04-16 09:57 | 28.31360 | 126.24918 | 32988 ft | 505 kts | 45° |
| 2026-04-16 09:57 | 28.35776 | 126.31046 | 32985 ft | 505 kts | 45° |
| 2026-04-16 09:58 | 28.40245 | 126.37255 | 32989 ft | 507 kts | 45° |
| 2026-04-16 09:58 | 28.44677 | 126.43424 | 32987 ft | 505 kts | 45° |
| 2026-04-16 09:59 | 28.49101 | 126.49591 | 32985 ft | 507 kts | 45° |
| 2026-04-16 09:59 | 28.53571 | 126.55828 | 32987 ft | 507 kts | 45° |
| 2026-04-16 10:00 | 28.58016 | 126.62043 | 32987 ft | 506 kts | 45° |
| 2026-04-16 10:00 | 28.62447 | 126.68246 | 32985 ft | 508 kts | 45° |
| 2026-04-16 10:01 | 28.69116 | 126.77596 | 32989 ft | 509 kts | 45° |
| 2026-04-16 10:01 | 28.73565 | 126.83847 | 32988 ft | 509 kts | 45° |
| 2026-04-16 10:02 | 28.78026 | 126.90126 | 32990 ft | 509 kts | 45° |
| 2026-04-16 10:02 | 28.82466 | 126.96384 | 32987 ft | 509 kts | 45° |
| 2026-04-16 10:03 | 28.86917 | 127.02670 | 32984 ft | 509 kts | 45° |
| 2026-04-16 10:03 | 28.91344 | 127.08929 | 32986 ft | 511 kts | 45° |
| 2026-04-16 10:04 | 28.95788 | 127.15220 | 32983 ft | 510 kts | 45° |
| 2026-04-16 10:04 | 29.00234 | 127.21524 | 32981 ft | 510 kts | 44° |
| 2026-04-16 10:05 | 29.04661 | 127.27811 | 32981 ft | 509 kts | 44° |
| 2026-04-16 10:05 | 29.09102 | 127.34127 | 32979 ft | 511 kts | 44° |
| 2026-04-16 10:06 | 29.13532 | 127.40437 | 32981 ft | 510 kts | 45° |
| 2026-04-16 10:06 | 29.17969 | 127.46767 | 32980 ft | 511 kts | 44° |
| 2026-04-16 10:07 | 29.22414 | 127.53119 | 32978 ft | 511 kts | 44° |
| 2026-04-16 10:07 | 29.26834 | 127.59446 | 32977 ft | 512 kts | 44° |
| 2026-04-16 10:08 | 29.31259 | 127.65791 | 32975 ft | 511 kts | 45° |
| 2026-04-16 10:08 | 29.35704 | 127.72169 | 32980 ft | 512 kts | 45° |
| 2026-04-16 10:09 | 29.40135 | 127.78537 | 32975 ft | 513 kts | 45° |
| 2026-04-16 10:09 | 29.44556 | 127.84901 | 32973 ft | 512 kts | 45° |
| 2026-04-16 10:10 | 29.48970 | 127.91270 | 32974 ft | 512 kts | 45° |
| 2026-04-16 10:10 | 29.53436 | 127.97716 | 32968 ft | 513 kts | 44° |
| 2026-04-16 10:11 | 29.57837 | 128.04082 | 32966 ft | 513 kts | 44° |
| 2026-04-16 10:11 | 29.62287 | 128.10521 | 32966 ft | 515 kts | 44° |
| 2026-04-16 10:12 | 29.66722 | 128.16948 | 32969 ft | 514 kts | 45° |
| 2026-04-16 10:12 | 29.71158 | 128.23390 | 32965 ft | 513 kts | 44° |
| 2026-04-16 10:13 | 29.75564 | 128.29796 | 32966 ft | 515 kts | 44° |
| 2026-04-16 10:13 | 29.79997 | 128.36252 | 32968 ft | 516 kts | 44° |
| 2026-04-16 10:14 | 29.84314 | 128.42549 | 32966 ft | 514 kts | 44° |
| 2026-04-16 10:14 | 29.88735 | 128.49013 | 32970 ft | 514 kts | 44° |
| 2026-04-16 10:15 | 29.93153 | 128.55478 | 32968 ft | 515 kts | 44° |
| 2026-04-16 10:15 | 29.97600 | 128.61997 | 32967 ft | 515 kts | 44° |
| 2026-04-16 10:16 | 30.01997 | 128.68455 | 32968 ft | 516 kts | 45° |
| 2026-04-16 10:16 | 30.06421 | 128.74960 | 32971 ft | 517 kts | 45° |
| 2026-04-16 10:17 | 30.10867 | 128.81509 | 32971 ft | 515 kts | 44° |
| 2026-04-16 10:17 | 30.15280 | 128.88019 | 32971 ft | 515 kts | 45° |
| 2026-04-16 10:18 | 30.19691 | 128.94531 | 32968 ft | 516 kts | 44° |
| 2026-04-16 10:18 | 30.24104 | 129.01070 | 32976 ft | 517 kts | 44° |
| 2026-04-16 10:19 | 30.28500 | 129.07588 | 32976 ft | 516 kts | 44° |
| 2026-04-16 10:19 | 30.32914 | 129.14143 | 32980 ft | 517 kts | 44° |
| 2026-04-16 10:20 | 30.37330 | 129.20712 | 32986 ft | 518 kts | 44° |
| 2026-04-16 10:20 | 30.41739 | 129.27283 | 32984 ft | 518 kts | 44° |
| 2026-04-16 10:21 | 30.46157 | 129.33874 | 32985 ft | 518 kts | 44° |
| 2026-04-16 10:21 | 30.50547 | 129.40439 | 32991 ft | 518 kts | 44° |
| 2026-04-16 10:22 | 30.54951 | 129.47037 | 32989 ft | 517 kts | 44° |
| 2026-04-16 10:22 | 30.59342 | 129.53624 | 33002 ft | 518 kts | 44° |
| 2026-04-16 10:23 | 30.63746 | 129.60237 | 32996 ft | 520 kts | 44° |
| 2026-04-16 10:23 | 30.68152 | 129.66867 | 32999 ft | 518 kts | 44° |
| 2026-04-16 10:24 | 30.72549 | 129.73497 | 32998 ft | 520 kts | 44° |
| 2026-04-16 10:24 | 30.76948 | 129.80148 | 33000 ft | 519 kts | 44° |
| 2026-04-16 10:25 | 30.81342 | 129.86793 | 33003 ft | 520 kts | 44° |
| 2026-04-16 10:25 | 30.85664 | 129.93514 | 33004 ft | 525 kts | 47° |
| 2026-04-16 10:26 | 30.89624 | 130.00667 | 33007 ft | 526 kts | 51° |
| 2026-04-16 10:26 | 30.93409 | 130.07974 | 33003 ft | 529 kts | 51° |
| 2026-04-16 10:27 | 30.97174 | 130.15273 | 33006 ft | 528 kts | 51° |
| 2026-04-16 10:27 | 31.00987 | 130.22586 | 33009 ft | 528 kts | 51° |
| 2026-04-16 10:28 | 31.04796 | 130.29835 | 32997 ft | 526 kts | 51° |
| 2026-04-16 10:28 | 31.08632 | 130.37115 | 33012 ft | 526 kts | 51° |
| 2026-04-16 10:29 | 31.12445 | 130.44353 | 33015 ft | 525 kts | 50° |
| 2026-04-16 10:29 | 31.16281 | 130.51645 | 33014 ft | 527 kts | 51° |
| 2026-04-16 10:30 | 31.20163 | 130.59021 | 33301 ft | 536 kts | 50° |
| 2026-04-16 10:30 | 31.22098 | 130.62714 | 33761 ft | 534 kts | 51° |
| 2026-04-16 10:30 | 31.24009 | 130.66368 | 34123 ft | 534 kts | 51° |
| 2026-04-16 10:31 | 31.25942 | 130.70073 | 34479 ft | 533 kts | 51° |
| 2026-04-16 10:31 | 31.27874 | 130.73776 | 34804 ft | 532 kts | 51° |
| 2026-04-16 10:31 | 31.29797 | 130.77467 | 35021 ft | 533 kts | 51° |
| 2026-04-16 10:31 | 31.31725 | 130.81165 | 35014 ft | 534 kts | 51° |
| 2026-04-16 10:32 | 31.35569 | 130.88550 | 35019 ft | 531 kts | 51° |
| 2026-04-16 10:32 | 31.39395 | 130.95914 | 35032 ft | 532 kts | 51° |
| 2026-04-16 10:33 | 31.43242 | 131.03330 | 35025 ft | 530 kts | 51° |
| 2026-04-16 10:33 | 31.47077 | 131.10736 | 35014 ft | 532 kts | 51° |
| 2026-04-16 10:34 | 31.50875 | 131.18088 | 34998 ft | 530 kts | 51° |
| 2026-04-16 10:34 | 31.54689 | 131.25487 | 35006 ft | 530 kts | 51° |
| 2026-04-16 10:35 | 31.58522 | 131.32935 | 35006 ft | 532 kts | 51° |
| 2026-04-16 10:35 | 31.62320 | 131.40330 | 35009 ft | 531 kts | 51° |
| 2026-04-16 10:36 | 31.66131 | 131.47777 | 35013 ft | 530 kts | 51° |
| 2026-04-16 10:36 | 31.69912 | 131.55182 | 35005 ft | 528 kts | 51° |
| 2026-04-16 10:37 | 31.73674 | 131.62547 | 35006 ft | 532 kts | 51° |
| 2026-04-16 10:37 | 31.77474 | 131.70015 | 35002 ft | 531 kts | 51° |
| 2026-04-16 10:38 | 31.81232 | 131.77417 | 35000 ft | 531 kts | 51° |
| 2026-04-16 10:38 | 31.85019 | 131.84878 | 35009 ft | 532 kts | 52° |
| 2026-04-16 10:39 | 31.88784 | 131.92317 | 35007 ft | 530 kts | 51° |
| 2026-04-16 10:39 | 31.92520 | 131.99719 | 35005 ft | 529 kts | 51° |
| 2026-04-16 10:40 | 31.96297 | 132.07205 | 35001 ft | 530 kts | 51° |
| 2026-04-16 10:40 | 32.00029 | 132.14622 | 35003 ft | 532 kts | 52° |
| 2026-04-16 10:41 | 32.03807 | 132.22145 | 35010 ft | 530 kts | 52° |
| 2026-04-16 10:41 | 32.07534 | 132.29585 | 35000 ft | 529 kts | 52° |
| 2026-04-16 10:42 | 32.11274 | 132.37059 | 35003 ft | 528 kts | 52° |
| 2026-04-16 10:42 | 32.14823 | 132.44412 | 35004 ft | 532 kts | 55° |
| 2026-04-16 10:43 | 32.18143 | 132.52185 | 35002 ft | 532 kts | 57° |
| 2026-04-16 10:43 | 32.21362 | 132.60053 | 35002 ft | 533 kts | 57° |
| 2026-04-16 10:44 | 32.24574 | 132.67873 | 34995 ft | 532 kts | 57° |
| 2026-04-16 10:44 | 32.27824 | 132.75688 | 34990 ft | 533 kts | 57° |
| 2026-04-16 10:45 | 32.31093 | 132.83501 | 34990 ft | 530 kts | 57° |
| 2026-04-16 10:45 | 32.34370 | 132.91303 | 34988 ft | 531 kts | 57° |
| 2026-04-16 10:46 | 32.37656 | 132.99132 | 34983 ft | 531 kts | 57° |
| 2026-04-16 10:46 | 32.40920 | 133.06943 | 34992 ft | 531 kts | 57° |
| 2026-04-16 10:47 | 32.44170 | 133.14743 | 34990 ft | 531 kts | 57° |
| 2026-04-16 10:47 | 32.47440 | 133.22591 | 34988 ft | 531 kts | 57° |
| 2026-04-16 10:48 | 32.50685 | 133.30396 | 34983 ft | 528 kts | 57° |
| 2026-04-16 10:48 | 32.53916 | 133.38191 | 34981 ft | 530 kts | 57° |
| 2026-04-16 10:49 | 32.57143 | 133.45995 | 34994 ft | 529 kts | 57° |
| 2026-04-16 10:49 | 32.60370 | 133.53809 | 34985 ft | 531 kts | 57° |
| 2026-04-16 10:50 | 32.63595 | 133.61644 | 34984 ft | 529 kts | 57° |
| 2026-04-16 10:50 | 32.66814 | 133.69490 | 34992 ft | 528 kts | 57° |
| 2026-04-16 10:51 | 32.70023 | 133.77316 | 34994 ft | 530 kts | 58° |
| 2026-04-16 10:51 | 32.73234 | 133.85167 | 34984 ft | 528 kts | 58° |
| 2026-04-16 10:52 | 32.76415 | 133.92972 | 34991 ft | 530 kts | 57° |
| 2026-04-16 10:52 | 32.79615 | 134.00830 | 34988 ft | 529 kts | 58° |
| 2026-04-16 10:53 | 32.82584 | 134.08783 | 34982 ft | 532 kts | 63° |
| 2026-04-16 10:53 | 32.84945 | 134.17152 | 34984 ft | 539 kts | 68° |
| 2026-04-16 10:54 | 32.87018 | 134.25679 | 34980 ft | 534 kts | 70° |
| 2026-04-16 10:54 | 32.89032 | 134.34168 | 34966 ft | 535 kts | 69° |
| 2026-04-16 10:55 | 32.91082 | 134.42693 | 34963 ft | 537 kts | 69° |
| 2026-04-16 10:55 | 32.93148 | 134.51169 | 34964 ft | 536 kts | 68° |
| 2026-04-16 10:56 | 32.95243 | 134.59694 | 34971 ft | 536 kts | 68° |
| 2026-04-16 10:56 | 32.97332 | 134.68192 | 34962 ft | 538 kts | 69° |
| 2026-04-16 10:57 | 32.99423 | 134.76733 | 34962 ft | 535 kts | 69° |
| 2026-04-16 10:57 | 33.01487 | 134.85191 | 34958 ft | 536 kts | 69° |
| 2026-04-16 10:58 | 33.03573 | 134.93756 | 34947 ft | 537 kts | 69° |
| 2026-04-16 10:58 | 33.05628 | 135.02235 | 34949 ft | 538 kts | 69° |
| 2026-04-16 10:59 | 33.07704 | 135.10815 | 34964 ft | 537 kts | 69° |
| 2026-04-16 10:59 | 33.09756 | 135.19338 | 34960 ft | 538 kts | 69° |
| 2026-04-16 11:00 | 33.11752 | 135.27918 | 34949 ft | 537 kts | 70° |
| 2026-04-16 11:00 | 33.13448 | 135.35612 | 34771 ft | 536 kts | 71° |
| 2026-04-16 11:01 | 33.14385 | 135.39934 | 34925 ft | 538 kts | 71° |
| 2026-04-16 11:01 | 33.15319 | 135.44243 | 34940 ft | 542 kts | 71° |
| 2026-04-16 11:01 | 33.17213 | 135.52959 | 34965 ft | 544 kts | 71° |
| 2026-04-16 11:02 | 33.19094 | 135.61607 | 34986 ft | 537 kts | 70° |
| 2026-04-16 11:02 | 33.20972 | 135.70219 | 34954 ft | 540 kts | 71° |
| 2026-04-16 11:03 | 33.22863 | 135.78905 | 34930 ft | 542 kts | 71° |
| 2026-04-16 11:04 | 33.25514 | 135.91957 | 34891 ft | 545 kts | 80° |
| 2026-04-16 11:04 | 33.25532 | 135.96489 | 34917 ft | 549 kts | 98° |
| 2026-04-16 11:04 | 33.24495 | 136.00833 | 34910 ft | 544 kts | 118° |
| 2026-04-16 11:04 | 33.22486 | 136.04582 | 34925 ft | 532 kts | 137° |
| 2026-04-16 11:05 | 33.19758 | 136.07443 | 34908 ft | 513 kts | 155° |
| 2026-04-16 11:05 | 33.16648 | 136.09325 | 34927 ft | 494 kts | 170° |
| 2026-04-16 11:05 | 33.13414 | 136.10533 | 34924 ft | 481 kts | 177° |
| 2026-04-16 11:05 | 33.10204 | 136.11095 | 34913 ft | 456 kts | 192° |
| 2026-04-16 11:06 | 33.07183 | 136.10649 | 34921 ft | 429 kts | 207° |
| 2026-04-16 11:06 | 33.04466 | 136.09355 | 34929 ft | 413 kts | 219° |
| 2026-04-16 11:06 | 33.02093 | 136.07524 | 34928 ft | 401 kts | 227° |
| 2026-04-16 11:07 | 32.98193 | 136.03062 | 34923 ft | 377 kts | 244° |
| 2026-04-16 11:07 | 32.97007 | 136.00346 | 34981 ft | 369 kts | 255° |
| 2026-04-16 11:07 | 32.96259 | 135.97447 | 34974 ft | 365 kts | 259° |
| 2026-04-16 11:08 | 32.94880 | 135.91634 | 34915 ft | 365 kts | 258° |
| 2026-04-16 11:08 | 32.93414 | 135.85849 | 34925 ft | 366 kts | 258° |
| 2026-04-16 11:09 | 32.91942 | 135.80049 | 34920 ft | 365 kts | 258° |
| 2026-04-16 11:09 | 32.90492 | 135.74287 | 34926 ft | 366 kts | 258° |
| 2026-04-16 11:10 | 32.89345 | 135.68445 | 34918 ft | 361 kts | 268° |
| 2026-04-16 11:10 | 32.89964 | 135.62563 | 34868 ft | 361 kts | 284° |
| 2026-04-16 11:11 | 32.92013 | 135.57126 | 35060 ft | 371 kts | 298° |
| 2026-04-16 11:11 | 32.93589 | 135.54680 | 34944 ft | 376 kts | 306° |
| 2026-04-16 11:11 | 32.95604 | 135.52660 | 34735 ft | 386 kts | 319° |
| 2026-04-16 11:11 | 32.98079 | 135.51224 | 34912 ft | 400 kts | 329° |
| 2026-04-16 11:12 | 33.00756 | 135.50227 | 34937 ft | 410 kts | 333° |
| 2026-04-16 11:12 | 33.06495 | 135.49152 | 34928 ft | 439 kts | 353° |
| 2026-04-16 11:12 | 33.09538 | 135.50012 | 34950 ft | 469 kts | 11° |
| 2026-04-16 11:13 | 33.12458 | 135.52022 | 34941 ft | 494 kts | 28° |
| 2026-04-16 11:13 | 33.14964 | 135.54948 | 34983 ft | 516 kts | 43° |
| 2026-04-16 11:13 | 33.16772 | 135.58115 | 34948 ft | 526 kts | 52° |
| 2026-04-16 11:14 | 33.19725 | 135.66022 | 34935 ft | 537 kts | 66° |
| 2026-04-16 11:14 | 33.21902 | 135.74568 | 34938 ft | 540 kts | 70° |
| 2026-04-16 11:15 | 33.23877 | 135.83240 | 34931 ft | 539 kts | 71° |
| 2026-04-16 11:15 | 33.25565 | 135.91937 | 34894 ft | 545 kts | 81° |
| 2026-04-16 11:16 | 33.25381 | 136.00987 | 34906 ft | 550 kts | 102° |
| 2026-04-16 11:16 | 33.24257 | 136.05319 | 34940 ft | 545 kts | 117° |
| 2026-04-16 11:16 | 33.22429 | 136.09206 | 34912 ft | 537 kts | 130° |
| 2026-04-16 11:17 | 33.17507 | 136.15778 | 34925 ft | 521 kts | 147° |
| 2026-04-16 11:17 | 33.14570 | 136.18184 | 34913 ft | 502 kts | 162° |
| 2026-04-16 11:17 | 33.11436 | 136.19717 | 34915 ft | 485 kts | 174° |
| 2026-04-16 11:17 | 33.08187 | 136.20572 | 34945 ft | 472 kts | 183° |
| 2026-04-16 11:18 | 33.04960 | 136.20999 | 34902 ft | 464 kts | 187° |
| 2026-04-16 11:18 | 33.01758 | 136.21004 | 34923 ft | 444 kts | 197° |
| 2026-04-16 11:18 | 32.98804 | 136.20334 | 34926 ft | 428 kts | 208° |
| 2026-04-16 11:18 | 32.96060 | 136.19102 | 34927 ft | 417 kts | 217° |
| 2026-04-16 11:19 | 32.93521 | 136.17514 | 35004 ft | 410 kts | 221° |
| 2026-04-16 11:19 | 32.91129 | 136.15714 | 34890 ft | 403 kts | 226° |
| 2026-04-16 11:19 | 32.89034 | 136.13606 | 34952 ft | 388 kts | 234° |
| 2026-04-16 11:20 | 32.85894 | 136.08607 | 34881 ft | 375 kts | 248° |
| 2026-04-16 11:20 | 32.83703 | 136.03099 | 34924 ft | 365 kts | 256° |
| 2026-04-16 11:21 | 32.82274 | 135.97304 | 34959 ft | 364 kts | 258° |
| 2026-04-16 11:21 | 32.80894 | 135.91554 | 35077 ft | 363 kts | 258° |
| 2026-04-16 11:21 | 32.80192 | 135.88684 | 34935 ft | 365 kts | 258° |
| 2026-04-16 11:22 | 32.79473 | 135.85771 | 34931 ft | 365 kts | 258° |
| 2026-04-16 11:22 | 32.78038 | 135.79991 | 34930 ft | 366 kts | 258° |
| 2026-04-16 11:23 | 32.76700 | 135.74216 | 34928 ft | 364 kts | 262° |
| 2026-04-16 11:23 | 32.76378 | 135.68282 | 34937 ft | 359 kts | 275° |
| 2026-04-16 11:24 | 32.77204 | 135.62450 | 34935 ft | 360 kts | 283° |
| 2026-04-16 11:24 | 32.79156 | 135.56920 | 34936 ft | 367 kts | 297° |
| 2026-04-16 11:25 | 32.82230 | 135.51997 | 34944 ft | 374 kts | 304° |
| 2026-04-16 11:25 | 32.86195 | 135.47861 | 34938 ft | 389 kts | 320° |
| 2026-04-16 11:26 | 32.91239 | 135.45201 | 34942 ft | 402 kts | 329° |
| 2026-04-16 11:26 | 32.96806 | 135.43593 | 34698 ft | 431 kts | 345° |
| 2026-04-16 11:26 | 32.99821 | 135.43750 | 34848 ft | 443 kts | 356° |
| 2026-04-16 11:27 | 33.02896 | 135.44557 | 34933 ft | 459 kts | 5° |
| 2026-04-16 11:27 | 33.09007 | 135.47232 | 34955 ft | 478 kts | 17° |
| 2026-04-16 11:27 | 33.11807 | 135.49480 | 34942 ft | 503 kts | 31° |
| 2026-04-16 11:28 | 33.14244 | 135.52576 | 34970 ft | 520 kts | 45° |
| 2026-04-16 11:28 | 33.16191 | 135.56277 | 34964 ft | 528 kts | 56° |
| 2026-04-16 11:28 | 33.17420 | 135.59538 | 34942 ft | 531 kts | 63° |
| 2026-04-16 11:29 | 33.19920 | 135.67833 | 34970 ft | 537 kts | 67° |
| 2026-04-16 11:29 | 33.22093 | 135.76338 | 34938 ft | 536 kts | 69° |
| 2026-04-16 11:30 | 33.24167 | 135.84909 | 34952 ft | 541 kts | 69° |
| 2026-04-16 11:30 | 33.26179 | 135.93527 | 34912 ft | 540 kts | 71° |
| 2026-04-16 11:31 | 33.28034 | 136.02225 | 34922 ft | 543 kts | 72° |
| 2026-04-16 11:31 | 33.29851 | 136.10977 | 34936 ft | 542 kts | 71° |
| 2026-04-16 11:32 | 33.31681 | 136.19724 | 34907 ft | 542 kts | 71° |
| 2026-04-16 11:32 | 33.33512 | 136.28404 | 34929 ft | 541 kts | 71° |
| 2026-04-16 11:33 | 33.35369 | 136.37155 | 34894 ft | 542 kts | 71° |
| 2026-04-16 11:33 | 33.37203 | 136.45818 | 34905 ft | 541 kts | 71° |
| 2026-04-16 11:34 | 33.39070 | 136.54656 | 34877 ft | 544 kts | 71° |
| 2026-04-16 11:34 | 33.40908 | 136.63405 | 35092 ft | 548 kts | 71° |
| 2026-04-16 11:34 | 33.41829 | 136.67807 | 34930 ft | 543 kts | 72° |
| 2026-04-16 11:35 | 33.42731 | 136.72136 | 34925 ft | 540 kts | 72° |
| 2026-04-16 11:35 | 33.44555 | 136.80905 | 34919 ft | 544 kts | 72° |
| 2026-04-16 11:36 | 33.46372 | 136.89653 | 34924 ft | 543 kts | 72° |
| 2026-04-16 11:36 | 33.48188 | 136.98436 | 34921 ft | 544 kts | 72° |
| 2026-04-16 11:37 | 33.49993 | 137.07193 | 34925 ft | 546 kts | 73° |
| 2026-04-16 11:37 | 33.51805 | 137.16013 | 34927 ft | 544 kts | 72° |
| 2026-04-16 11:38 | 33.53599 | 137.24783 | 34923 ft | 545 kts | 72° |
| 2026-04-16 11:38 | 33.55380 | 137.33540 | 34929 ft | 543 kts | 72° |
| 2026-04-16 11:39 | 33.57167 | 137.42343 | 34926 ft | 545 kts | 72° |
| 2026-04-16 11:39 | 33.58951 | 137.51155 | 34930 ft | 542 kts | 73° |
| 2026-04-16 11:40 | 33.60908 | 137.59866 | 34931 ft | 542 kts | 68° |
| 2026-04-16 11:40 | 33.63733 | 137.68092 | 34927 ft | 534 kts | 58° |
| 2026-04-16 11:41 | 33.67210 | 137.75919 | 34934 ft | 531 kts | 54° |
| 2026-04-16 11:41 | 33.70859 | 137.83606 | 34932 ft | 531 kts | 53° |
| 2026-04-16 11:42 | 33.74500 | 137.91318 | 34934 ft | 529 kts | 54° |
| 2026-04-16 11:42 | 33.78062 | 137.99011 | 34929 ft | 530 kts | 54° |
| 2026-04-16 11:43 | 33.81608 | 138.06764 | 34930 ft | 531 kts | 54° |
| 2026-04-16 11:43 | 33.85137 | 138.14551 | 34925 ft | 527 kts | 54° |
| 2026-04-16 11:44 | 33.88620 | 138.22260 | 34824 ft | 527 kts | 55° |
| 2026-04-16 11:44 | 33.90365 | 138.26131 | 34445 ft | 523 kts | 55° |
| 2026-04-16 11:44 | 33.92101 | 138.29988 | 33971 ft | 520 kts | 54° |
| 2026-04-16 11:44 | 33.93785 | 138.33752 | 33481 ft | 518 kts | 55° |
| 2026-04-16 11:45 | 33.95497 | 138.37596 | 32923 ft | 516 kts | 54° |
| 2026-04-16 11:45 | 33.97179 | 138.41376 | 32351 ft | 515 kts | 55° |
| 2026-04-16 11:45 | 33.98872 | 138.45186 | 31765 ft | 516 kts | 54° |
| 2026-04-16 11:45 | 34.00560 | 138.48973 | 31177 ft | 516 kts | 54° |
| 2026-04-16 11:46 | 34.02246 | 138.52754 | 30570 ft | 517 kts | 54° |
| 2026-04-16 11:46 | 34.03956 | 138.56604 | 29975 ft | 516 kts | 54° |
| 2026-04-16 11:46 | 34.05644 | 138.60425 | 29358 ft | 515 kts | 54° |
| 2026-04-16 11:46 | 34.07304 | 138.64195 | 28725 ft | 512 kts | 54° |
| 2026-04-16 11:47 | 34.08968 | 138.67982 | 28111 ft | 509 kts | 56° |
| 2026-04-16 11:47 | 34.10606 | 138.71713 | 27517 ft | 505 kts | 56° |
| 2026-04-16 11:47 | 34.12250 | 138.75462 | 26911 ft | 501 kts | 56° |
| 2026-04-16 11:47 | 34.13864 | 138.79141 | 26326 ft | 497 kts | 56° |
| 2026-04-16 11:48 | 34.15481 | 138.82826 | 25726 ft | 494 kts | 56° |
| 2026-04-16 11:48 | 34.17067 | 138.86443 | 25149 ft | 490 kts | 56° |
| 2026-04-16 11:48 | 34.18653 | 138.90057 | 24560 ft | 487 kts | 56° |
| 2026-04-16 11:48 | 34.20248 | 138.93697 | 23986 ft | 483 kts | 56° |
| 2026-04-16 11:49 | 34.21802 | 138.97243 | 23425 ft | 481 kts | 56° |
| 2026-04-16 11:49 | 34.23362 | 139.00804 | 22835 ft | 478 kts | 56° |
| 2026-04-16 11:49 | 34.24899 | 139.04318 | 22279 ft | 475 kts | 57° |
| 2026-04-16 11:49 | 34.26430 | 139.07823 | 21710 ft | 472 kts | 57° |
| 2026-04-16 11:50 | 34.27964 | 139.11340 | 21158 ft | 469 kts | 57° |
| 2026-04-16 11:50 | 34.29401 | 139.14850 | 20920 ft | 458 kts | 60° |
| 2026-04-16 11:50 | 34.30645 | 139.18263 | 20908 ft | 441 kts | 62° |
| 2026-04-16 11:50 | 34.31792 | 139.21626 | 20919 ft | 424 kts | 63° |
| 2026-04-16 11:51 | 34.32866 | 139.24863 | 20915 ft | 409 kts | 63° |
| 2026-04-16 11:51 | 34.33923 | 139.28055 | 20918 ft | 404 kts | 63° |
| 2026-04-16 11:51 | 34.34978 | 139.31206 | 20916 ft | 405 kts | 63° |
| 2026-04-16 11:51 | 34.36035 | 139.34335 | 20910 ft | 403 kts | 62° |
| 2026-04-16 11:52 | 34.37096 | 139.37462 | 20830 ft | 404 kts | 63° |
| 2026-04-16 11:52 | 34.38179 | 139.40634 | 20406 ft | 404 kts | 63° |
| 2026-04-16 11:52 | 34.39239 | 139.43735 | 19917 ft | 404 kts | 62° |
| 2026-04-16 11:52 | 34.40318 | 139.46889 | 19411 ft | 403 kts | 63° |
| 2026-04-16 11:53 | 34.41385 | 139.50009 | 18908 ft | 402 kts | 63° |
| 2026-04-16 11:53 | 34.42449 | 139.53128 | 18416 ft | 400 kts | 63° |
| 2026-04-16 11:53 | 34.43500 | 139.56212 | 17912 ft | 398 kts | 63° |
| 2026-04-16 11:53 | 34.44559 | 139.59320 | 17409 ft | 395 kts | 63° |
| 2026-04-16 11:54 | 34.45596 | 139.62366 | 16913 ft | 392 kts | 63° |
| 2026-04-16 11:54 | 34.46638 | 139.65428 | 16411 ft | 389 kts | 63° |
| 2026-04-16 11:54 | 34.47671 | 139.68394 | 15939 ft | 384 kts | 60° |
| 2026-04-16 11:54 | 34.48969 | 139.71184 | 15449 ft | 374 kts | 49° |
| 2026-04-16 11:55 | 34.50758 | 139.73354 | 14985 ft | 358 kts | 31° |
| 2026-04-16 11:55 | 34.52821 | 139.74979 | 14516 ft | 352 kts | 26° |
| 2026-04-16 11:55 | 34.54908 | 139.76457 | 14039 ft | 348 kts | 25° |
| 2026-04-16 11:55 | 34.57006 | 139.77918 | 13505 ft | 346 kts | 25° |
| 2026-04-16 11:56 | 34.59108 | 139.79401 | 12939 ft | 345 kts | 25° |
| 2026-04-16 11:56 | 34.61172 | 139.80887 | 12461 ft | 342 kts | 26° |
| 2026-04-16 11:56 | 34.63184 | 139.82353 | 12077 ft | 335 kts | 25° |
| 2026-04-16 11:56 | 34.65266 | 139.83487 | 11814 ft | 319 kts | 13° |
| 2026-04-16 11:57 | 34.67382 | 139.84055 | 11576 ft | 306 kts | 6° |
| 2026-04-16 11:57 | 34.69458 | 139.84450 | 11323 ft | 297 kts | 5° |
| 2026-04-16 11:57 | 34.71487 | 139.84882 | 11071 ft | 290 kts | 7° |
| 2026-04-16 11:57 | 34.73439 | 139.85388 | 10820 ft | 283 kts | 9° |
| 2026-04-16 11:58 | 34.75367 | 139.85948 | 10574 ft | 281 kts | 10° |
| 2026-04-16 11:58 | 34.77251 | 139.86513 | 10326 ft | 281 kts | 10° |
| 2026-04-16 11:58 | 34.79167 | 139.87093 | 10079 ft | 280 kts | 10° |
| 2026-04-16 11:58 | 34.81062 | 139.87665 | 9835 ft | 277 kts | 10° |
| 2026-04-16 11:59 | 34.82908 | 139.88222 | 9593 ft | 273 kts | 10° |
| 2026-04-16 11:59 | 34.84753 | 139.88780 | 9349 ft | 267 kts | 10° |
| 2026-04-16 11:59 | 34.86513 | 139.89314 | 9099 ft | 261 kts | 10° |
| 2026-04-16 11:59 | 34.88270 | 139.89842 | 8842 ft | 255 kts | 10° |
| 2026-04-16 12:00 | 34.89969 | 139.90353 | 8607 ft | 249 kts | 10° |
| 2026-04-16 12:00 | 34.91571 | 139.90836 | 8375 ft | 245 kts | 10° |
| 2026-04-16 12:00 | 34.93222 | 139.91333 | 8127 ft | 241 kts | 11° |
| 2026-04-16 12:00 | 34.94841 | 139.91820 | 7876 ft | 241 kts | 11° |
| 2026-04-16 12:01 | 34.96470 | 139.92313 | 7722 ft | 237 kts | 11° |
| 2026-04-16 12:01 | 34.98065 | 139.92796 | 7724 ft | 241 kts | 11° |
| 2026-04-16 12:01 | 34.99693 | 139.93288 | 7717 ft | 240 kts | 11° |
| 2026-04-16 12:02 | 35.02954 | 139.94276 | 7722 ft | 239 kts | 11° |
| 2026-04-16 12:02 | 35.04563 | 139.94765 | 7729 ft | 239 kts | 11° |
| 2026-04-16 12:02 | 35.06195 | 139.95262 | 7732 ft | 239 kts | 11° |
| 2026-04-16 12:02 | 35.07811 | 139.95749 | 7723 ft | 239 kts | 11° |
| 2026-04-16 12:03 | 35.09427 | 139.96236 | 7721 ft | 238 kts | 11° |
| 2026-04-16 12:03 | 35.11039 | 139.96722 | 7724 ft | 241 kts | 11° |
| 2026-04-16 12:03 | 35.12677 | 139.97220 | 7722 ft | 239 kts | 11° |
| 2026-04-16 12:03 | 35.14284 | 139.97708 | 7720 ft | 239 kts | 11° |
| 2026-04-16 12:04 | 35.15819 | 139.98029 | 7705 ft | 236 kts | 3° |
| 2026-04-16 12:04 | 35.17455 | 139.98116 | 7492 ft | 231 kts | 359° |
| 2026-04-16 12:04 | 35.19050 | 139.98126 | 7228 ft | 228 kts | 359° |
| 2026-04-16 12:04 | 35.20600 | 139.98154 | 7092 ft | 220 kts | 0° |
| 2026-04-16 12:05 | 35.22129 | 139.98201 | 6968 ft | 211 kts | 0° |
| 2026-04-16 12:05 | 35.23558 | 139.98254 | 6792 ft | 204 kts | 0° |
| 2026-04-16 12:05 | 35.24990 | 139.98292 | 6390 ft | 206 kts | 358° |
| 2026-04-16 12:05 | 35.26386 | 139.97972 | 6004 ft | 206 kts | 339° |
| 2026-04-16 12:06 | 35.27590 | 139.97054 | 5958 ft | 202 kts | 329° |
| 2026-04-16 12:06 | 35.28780 | 139.96089 | 5776 ft | 204 kts | 332° |
| 2026-04-16 12:06 | 35.29991 | 139.95216 | 5448 ft | 202 kts | 334° |
| 2026-04-16 12:06 | 35.31220 | 139.94363 | 5157 ft | 203 kts | 334° |
| 2026-04-16 12:07 | 35.32446 | 139.93504 | 4869 ft | 202 kts | 334° |
| 2026-04-16 12:07 | 35.33668 | 139.92644 | 4583 ft | 202 kts | 334° |
| 2026-04-16 12:07 | 35.34883 | 139.91788 | 4295 ft | 199 kts | 334° |
| 2026-04-16 12:07 | 35.36067 | 139.90956 | 4018 ft | 195 kts | 335° |
| 2026-04-16 12:08 | 35.37226 | 139.90141 | 3753 ft | 191 kts | 335° |
| 2026-04-16 12:08 | 35.38356 | 139.89345 | 3492 ft | 187 kts | 335° |
| 2026-04-16 12:08 | 35.39472 | 139.88559 | 3237 ft | 183 kts | 335° |
| 2026-04-16 12:08 | 35.40575 | 139.87787 | 2979 ft | 181 kts | 335° |
| 2026-04-16 12:09 | 35.41666 | 139.87022 | 2734 ft | 178 kts | 335° |
| 2026-04-16 12:09 | 35.42709 | 139.86276 | 2501 ft | 169 kts | 335° |
| 2026-04-16 12:09 | 35.43703 | 139.85586 | 2265 ft | 158 kts | 337° |
| 2026-04-16 12:09 | 35.44620 | 139.84943 | 2067 ft | 146 kts | 337° |
| 2026-04-16 12:10 | 35.45482 | 139.84323 | 1873 ft | 139 kts | 337° |
| 2026-04-16 12:10 | 35.46326 | 139.83742 | 1687 ft | 140 kts | 337° |
| 2026-04-16 12:10 | 35.47140 | 139.83159 | 1503 ft | 133 kts | 336° |
| 2026-04-16 12:10 | 35.47944 | 139.82584 | 1325 ft | 134 kts | 338° |
| 2026-04-16 12:11 | 35.48759 | 139.82031 | 1142 ft | 133 kts | 338° |
| 2026-04-16 12:11 | 35.49560 | 139.81459 | 979 ft | 133 kts | 336° |
| 2026-04-16 12:11 | 35.50375 | 139.80879 | 796 ft | 135 kts | 336° |
| 2026-04-16 12:11 | 35.51200 | 139.80296 | 607 ft | 137 kts | 337° |
| 2026-04-16 12:12 | 35.52021 | 139.79723 | 434 ft | 133 kts | 338° |
| 2026-04-16 12:12 | 35.52844 | 139.79149 | 278 ft | 141 kts | 336° |
| 2026-04-16 12:12 | 35.53697 | 139.78531 | 70 ft | 143 kts | 336° |
| 2026-04-16 12:12 | 35.54560 | 139.77911 | 243 ft | 140 kts | 335° |
| 2026-04-16 12:13 | 35.55354 | 139.77293 | 779 ft | 147 kts | 335° |
| 2026-04-16 12:13 | 35.56253 | 139.76535 | 1451 ft | 166 kts | 322° |
| 2026-04-16 12:13 | 35.56743 | 139.75273 | 2340 ft | 179 kts | 282° |
| 2026-04-16 12:13 | 35.56569 | 139.73784 | 3216 ft | 185 kts | 257° |
| 2026-04-16 12:14 | 35.55943 | 139.72397 | 3783 ft | 201 kts | 230° |
| 2026-04-16 12:14 | 35.54671 | 139.71635 | 4180 ft | 224 kts | 185° |
| 2026-04-16 12:14 | 35.53133 | 139.72034 | 4635 ft | 236 kts | 146° |
| 2026-04-16 12:14 | 35.51910 | 139.73421 | 4772 ft | 251 kts | 122° |
| 2026-04-16 12:15 | 35.50908 | 139.75247 | 4743 ft | 258 kts | 117° |
| 2026-04-16 12:15 | 35.49881 | 139.77060 | 4746 ft | 263 kts | 124° |
| 2026-04-16 12:15 | 35.48511 | 139.78563 | 4744 ft | 272 kts | 149° |
| 2026-04-16 12:15 | 35.46699 | 139.79344 | 4737 ft | 274 kts | 159° |
| 2026-04-16 12:16 | 35.44912 | 139.80113 | 4723 ft | 272 kts | 158° |
| 2026-04-16 12:16 | 35.43077 | 139.80684 | 4724 ft | 274 kts | 177° |
| 2026-04-16 12:16 | 35.41183 | 139.80455 | 4741 ft | 275 kts | 191° |
| 2026-04-16 12:16 | 35.39301 | 139.79999 | 4740 ft | 274 kts | 192° |
| 2026-04-16 12:17 | 35.37436 | 139.79532 | 4742 ft | 275 kts | 192° |
| 2026-04-16 12:17 | 35.35549 | 139.79059 | 4737 ft | 275 kts | 192° |
| 2026-04-16 12:17 | 35.33686 | 139.78586 | 4591 ft | 270 kts | 192° |
| 2026-04-16 12:17 | 35.31854 | 139.78117 | 4341 ft | 268 kts | 192° |
| 2026-04-16 12:18 | 35.30011 | 139.77637 | 4039 ft | 269 kts | 192° |
| 2026-04-16 12:18 | 35.28198 | 139.77155 | 3771 ft | 268 kts | 192° |
| 2026-04-16 12:18 | 35.26394 | 139.76672 | 3709 ft | 266 kts | 192° |
| 2026-04-16 12:18 | 35.24556 | 139.76221 | 3707 ft | 269 kts | 185° |
| 2026-04-16 12:19 | 35.22736 | 139.76550 | 3708 ft | 262 kts | 149° |
| 2026-04-16 12:19 | 35.21405 | 139.78003 | 3719 ft | 252 kts | 118° |
| 2026-04-16 12:19 | 35.20539 | 139.79831 | 3707 ft | 246 kts | 112° |
| 2026-04-16 12:19 | 35.19739 | 139.81694 | 3713 ft | 248 kts | 111° |
| 2026-04-16 12:20 | 35.18933 | 139.83550 | 3714 ft | 247 kts | 112° |
| 2026-04-16 12:20 | 35.18246 | 139.85457 | 3699 ft | 241 kts | 95° |
| 2026-04-16 12:20 | 35.18409 | 139.87392 | 3712 ft | 227 kts | 59° |
| 2026-04-16 12:20 | 35.19380 | 139.88831 | 3717 ft | 220 kts | 37° |
| 2026-04-16 12:21 | 35.20580 | 139.89981 | 3711 ft | 217 kts | 35° |
| 2026-04-16 12:21 | 35.21776 | 139.91122 | 3708 ft | 222 kts | 36° |
| 2026-04-16 12:21 | 35.23009 | 139.92348 | 3711 ft | 231 kts | 37° |
| 2026-04-16 12:21 | 35.24243 | 139.93602 | 3717 ft | 228 kts | 37° |
| 2026-04-16 12:22 | 35.25476 | 139.94858 | 3722 ft | 232 kts | 37° |
| 2026-04-16 12:22 | 35.26744 | 139.96133 | 3708 ft | 240 kts | 36° |
| 2026-04-16 12:22 | 35.28146 | 139.97261 | 3709 ft | 237 kts | 22° |
| 2026-04-16 12:22 | 35.29734 | 139.97510 | 3711 ft | 240 kts | 351° |
| 2026-04-16 12:23 | 35.31273 | 139.96695 | 3716 ft | 241 kts | 331° |
| 2026-04-16 12:23 | 35.32673 | 139.95535 | 3710 ft | 243 kts | 330° |
| 2026-04-16 12:23 | 35.34105 | 139.94455 | 3715 ft | 241 kts | 334° |
| 2026-04-16 12:23 | 35.35576 | 139.93446 | 3713 ft | 239 kts | 334° |
| 2026-04-16 12:24 | 35.36976 | 139.92482 | 3722 ft | 223 kts | 334° |
| 2026-04-16 12:24 | 35.38279 | 139.91559 | 3650 ft | 208 kts | 334° |
| 2026-04-16 12:24 | 35.39526 | 139.90681 | 3354 ft | 205 kts | 335° |
| 2026-04-16 12:24 | 35.40757 | 139.89821 | 3074 ft | 202 kts | 335° |
| 2026-04-16 12:25 | 35.41967 | 139.88968 | 2795 ft | 199 kts | 334° |
| 2026-04-16 12:25 | 35.43169 | 139.88113 | 2521 ft | 195 kts | 334° |
| 2026-04-16 12:25 | 35.44296 | 139.87323 | 2272 ft | 180 kts | 335° |
| 2026-04-16 12:25 | 35.45349 | 139.86587 | 2027 ft | 166 kts | 336° |
| 2026-04-16 12:26 | 35.46319 | 139.85901 | 1809 ft | 155 kts | 336° |
| 2026-04-16 12:26 | 35.47230 | 139.85260 | 1609 ft | 147 kts | 337° |
| 2026-04-16 12:26 | 35.48124 | 139.84634 | 1424 ft | 150 kts | 337° |
| 2026-04-16 12:26 | 35.49012 | 139.84010 | 1229 ft | 145 kts | 336° |
| 2026-04-16 12:27 | 35.49884 | 139.83374 | 1026 ft | 144 kts | 337° |
| 2026-04-16 12:27 | 35.50756 | 139.82779 | 833 ft | 143 kts | 338° |
| 2026-04-16 12:27 | 35.51629 | 139.82167 | 644 ft | 144 kts | 336° |
| 2026-04-16 12:27 | 35.52514 | 139.81535 | 437 ft | 147 kts | 338° |
| 2026-04-16 12:28 | 35.53430 | 139.80910 | 281 ft | 152 kts | 336° |
| 2026-04-16 12:28 | 35.54361 | 139.80234 | 60 ft | 160 kts | 336° |
| 2026-04-16 12:28 | 35.55238 | 139.79611 | 28 ft | 116 kts | 332° |
| 2026-04-16 12:28 | 35.55682 | 139.79300 | 28 ft | 44 kts | 329° |
| 2026-04-16 12:29 | 35.55940 | 139.79115 | 28 ft | 32 kts | 329° |
| 2026-04-16 12:29 | 35.56103 | 139.78932 | 28 ft | 26 kts | 307° |
| 2026-04-16 12:29 | 35.56144 | 139.78812 | 28 ft | 12 kts | 256° |
| 2026-04-16 12:29 | 35.56080 | 139.78764 | 28 ft | 11 kts | 163° |
| 2026-04-16 12:30 | 35.56014 | 139.78807 | 28 ft | 10 kts | 149° |
| 2026-04-16 12:30 | 35.55958 | 139.78848 | 28 ft | 8 kts | 150° |
| 2026-04-16 12:30 | 35.55909 | 139.78883 | 28 ft | 8 kts | 150° |
| 2026-04-16 12:30 | 35.55848 | 139.78926 | 28 ft | 9 kts | 150° |
| 2026-04-16 12:31 | 35.55785 | 139.78970 | 28 ft | 11 kts | 150° |
| 2026-04-16 12:31 | 35.55717 | 139.79019 | 28 ft | 10 kts | 150° |
| 2026-04-16 12:31 | 35.55658 | 139.79062 | 28 ft | 9 kts | 149° |
| 2026-04-16 12:31 | 35.55593 | 139.79106 | 28 ft | 13 kts | 150° |
| 2026-04-16 12:32 | 35.55505 | 139.79169 | 28 ft | 14 kts | 150° |
| 2026-04-16 12:32 | 35.55422 | 139.79228 | 28 ft | 13 kts | 150° |
| 2026-04-16 12:32 | 35.55346 | 139.79282 | 28 ft | 12 kts | 150° |
| 2026-04-16 12:32 | 35.55262 | 139.79341 | 28 ft | 13 kts | 150° |
| 2026-04-16 12:33 | 35.55181 | 139.79399 | 27 ft | 14 kts | 149° |
| 2026-04-16 12:33 | 35.55090 | 139.79463 | 28 ft | 14 kts | 150° |
| 2026-04-16 12:33 | 35.55004 | 139.79524 | 28 ft | 13 kts | 149° |
| 2026-04-16 12:33 | 35.54935 | 139.79573 | 28 ft | 6 kts | 151° |
| 2026-04-16 12:34 | 35.54895 | 139.79601 | 28 ft | 7 kts | 148° |
| 2026-04-16 12:34 | 35.54854 | 139.79631 | 27 ft | 6 kts | 149° |
| 2026-04-16 12:34 | 35.54819 | 139.79654 | 27 ft | 4 kts | 168° |
| 2026-04-16 12:34 | 35.54798 | 139.79622 | 27 ft | 5 kts | 240° |
| 2026-04-16 12:35 | 35.54771 | 139.79564 | 28 ft | 11 kts | 239° |
| 2026-04-16 12:35 | 35.54718 | 139.79451 | 28 ft | 16 kts | 240° |
| 2026-04-16 12:35 | 35.54662 | 139.79334 | 28 ft | 15 kts | 239° |
| 2026-04-16 12:35 | 35.54628 | 139.79231 | 28 ft | 9 kts | 308° |
| 2026-04-16 12:36 | 35.54681 | 139.79190 | 28 ft | 8 kts | 329° |
| 2026-04-16 12:36 | 35.54727 | 139.79158 | 28 ft | 6 kts | 330° |
| 2026-04-16 12:36 | 35.54756 | 139.79138 | 28 ft | 0 kts | 330° |
| 2026-04-16 12:36 | 35.54758 | 139.79137 | 28 ft | 0 kts | 331° |
| 2026-04-16 12:37 | 35.54760 | 139.79135 | 28 ft | 0 kts | 329° |